createdAt,value
2022-09-21T00:01:19.352Z,1228.88
2022-09-21T00:03:46.671Z,1234.47
2022-09-21T00:06:16.527Z,1228.35
2022-09-21T00:08:45.940Z,1233.07
2022-09-21T00:11:21.726Z,1236.35
2022-09-21T00:13:54.466Z,1233.72
2022-09-21T00:16:22.311Z,1233.40
2022-09-21T00:18:49.587Z,1235.28
2022-09-21T00:21:17.430Z,1235.53
2022-09-21T00:23:45.290Z,1232.20
2022-09-21T00:26:19.162Z,1240.27
2022-09-21T00:28:46.486Z,1235.38
2022-09-21T00:31:18.039Z,1236.38
2022-09-21T00:33:46.486Z,1233.38
2022-09-21T00:36:15.000Z,1229.20
2022-09-21T00:38:43.811Z,1233.15
2022-09-21T00:41:12.301Z,1232.25
2022-09-21T00:44:07.134Z,1237.45
2022-09-21T00:46:36.551Z,1237.17
2022-09-21T00:49:03.561Z,1236.37
2022-09-21T00:51:30.647Z,1245.07
2022-09-21T00:54:07.508Z,1238.05
2022-09-21T00:56:35.607Z,1231.82
2022-09-21T00:59:05.494Z,1237.40
2022-09-21T01:01:33.087Z,1232.65
2022-09-21T01:04:01.545Z,1237.10
2022-09-21T01:06:28.774Z,1242.70
2022-09-21T01:08:59.237Z,1235.00
2022-09-21T01:11:41.567Z,1236.00
2022-09-21T01:14:40.359Z,1236.32
2022-09-21T01:17:12.282Z,1240.78
2022-09-21T01:19:57.655Z,1239.17
2022-09-21T01:22:28.196Z,1239.63
2022-09-21T01:25:08.292Z,1234.70
2022-09-21T01:27:43.042Z,1241.65
2022-09-21T01:30:16.885Z,1236.95
2022-09-21T01:33:04.478Z,1243.87
2022-09-21T01:35:43.765Z,1246.30
2022-09-21T01:38:16.504Z,1233.80
2022-09-21T01:40:50.203Z,1234.15
2022-09-21T01:43:31.784Z,1237.28
2022-09-21T01:46:03.490Z,1240.00
2022-09-21T01:48:36.970Z,1238.70
2022-09-21T01:51:07.839Z,1241.72
2022-09-21T01:54:19.888Z,1240.95
2022-09-21T01:56:58.818Z,1240.38
2022-09-21T01:59:43.059Z,1237.30
2022-09-21T02:02:20.712Z,1235.38
2022-09-21T02:04:50.003Z,1241.22
2022-09-21T02:07:18.384Z,1239.70
2022-09-21T02:09:47.482Z,1240.90
2022-09-21T02:12:18.975Z,1237.97
2022-09-21T02:14:46.585Z,1238.57
2022-09-21T02:17:39.227Z,1234.35
2022-09-21T02:20:09.627Z,1236.18
2022-09-21T02:22:57.263Z,1234.13
2022-09-21T02:25:34.093Z,1240.70
2022-09-21T02:28:12.754Z,1236.05
2022-09-21T02:30:43.018Z,1235.53
2022-09-21T02:33:24.562Z,1240.20
2022-09-21T02:36:15.725Z,1242.82
2022-09-21T02:38:59.151Z,1232.63
2022-09-21T02:41:58.220Z,1238.78
2022-09-21T02:44:33.606Z,1234.28
2022-09-21T02:47:11.934Z,1237.65
2022-09-21T02:49:45.009Z,1235.45
2022-09-21T02:52:16.909Z,1234.43
2022-09-21T02:54:47.678Z,1243.28
2022-09-21T02:57:17.142Z,1238.60
2022-09-21T02:59:44.322Z,1238.80
2022-09-21T03:02:12.471Z,1240.07
2022-09-21T03:04:41.227Z,1240.47
2022-09-21T03:07:09.385Z,1235.00
2022-09-21T03:09:36.974Z,1234.93
2022-09-21T03:12:04.186Z,1233.95
2022-09-21T03:14:32.983Z,1235.50
2022-09-21T03:17:00.638Z,1239.35
2022-09-21T03:19:29.134Z,1239.90
2022-09-21T03:21:56.839Z,1239.28
2022-09-21T03:24:43.191Z,1239.20
2022-09-21T03:27:09.982Z,1236.70
2022-09-21T03:29:36.933Z,1239.32
2022-09-21T03:32:04.282Z,1238.13
2022-09-21T03:34:34.281Z,1235.47
2022-09-21T03:37:02.708Z,1233.00
2022-09-21T03:39:30.033Z,1242.18
2022-09-21T03:41:57.233Z,1237.93
2022-09-21T03:44:25.833Z,1238.00
2022-09-21T03:46:53.812Z,1239.25
2022-09-21T03:49:21.535Z,1239.18
2022-09-21T03:51:49.061Z,1239.53
2022-09-21T03:54:16.473Z,1238.53
2022-09-21T03:56:43.509Z,1236.43
2022-09-21T03:59:13.960Z,1241.57
2022-09-21T04:01:42.881Z,1234.57
2022-09-21T04:04:10.356Z,1235.60
2022-09-21T04:06:37.170Z,1234.53
2022-09-21T04:09:04.429Z,1239.60
2022-09-21T04:11:33.191Z,1236.65
2022-09-21T04:14:00.543Z,1237.55
2022-09-21T04:16:28.282Z,1241.38
2022-09-21T04:18:55.487Z,1241.15
2022-09-21T04:21:23.177Z,1241.93
2022-09-21T04:23:50.540Z,1241.32
2022-09-21T04:26:22.266Z,1244.82
2022-09-21T04:28:50.792Z,1239.63
2022-09-21T04:31:18.007Z,1241.97
2022-09-21T04:33:49.374Z,1242.07
2022-09-21T04:36:17.701Z,1238.10
2022-09-21T04:38:46.059Z,1242.72
2022-09-21T04:41:13.790Z,1246.75
2022-09-21T04:43:45.293Z,1243.72
2022-09-21T04:46:15.784Z,1241.00
2022-09-21T04:48:43.355Z,1243.95
2022-09-21T04:51:11.114Z,1247.30
2022-09-21T04:53:40.787Z,1247.43
2022-09-21T04:56:09.030Z,1250.93
2022-09-21T04:58:36.190Z,1247.73
2022-09-21T05:01:04.290Z,1244.15
2022-09-21T05:03:31.485Z,1248.82
2022-09-21T05:05:58.655Z,1244.90
2022-09-21T05:08:46.342Z,1243.38
2022-09-21T05:11:15.955Z,1238.00
2022-09-21T05:13:44.269Z,1246.32
2022-09-21T05:16:11.901Z,1244.73
2022-09-21T05:18:39.771Z,1247.87
2022-09-21T05:21:07.371Z,1248.22
2022-09-21T05:23:35.334Z,1246.63
2022-09-21T05:26:02.649Z,1251.70
2022-09-21T05:28:30.134Z,1244.97
2022-09-21T05:31:18.168Z,1247.40
2022-09-21T05:33:57.285Z,1246.32
2022-09-21T05:36:48.475Z,1244.65
2022-09-21T05:39:15.511Z,1248.40
2022-09-21T05:41:42.938Z,1237.88
2022-09-21T05:44:14.238Z,1245.65
2022-09-21T05:47:07.386Z,1245.00
2022-09-21T05:49:59.339Z,1243.82
2022-09-21T05:52:53.034Z,1241.18
2022-09-21T05:55:25.735Z,1248.07
2022-09-21T05:58:06.334Z,1241.22
2022-09-21T06:00:54.680Z,1245.75
2022-09-21T06:03:31.898Z,1246.65
2022-09-21T06:05:59.610Z,1245.78
2022-09-21T06:08:27.950Z,1249.30
2022-09-21T06:10:57.162Z,1249.43
2022-09-21T06:13:24.557Z,1242.57
2022-09-21T06:15:51.837Z,1243.40
2022-09-21T06:18:19.298Z,1244.47
2022-09-21T06:20:47.526Z,1241.45
2022-09-21T06:23:15.505Z,1247.07
2022-09-21T06:25:43.283Z,1238.22
2022-09-21T06:28:11.742Z,1240.82
2022-09-21T06:30:41.972Z,1244.55
2022-09-21T06:33:09.476Z,1242.15
2022-09-21T06:35:37.337Z,1241.03
2022-09-21T06:38:07.225Z,1243.60
2022-09-21T06:40:36.267Z,1240.93
2022-09-21T06:43:04.306Z,1240.93
2022-09-21T06:45:33.446Z,1238.97
2022-09-21T06:48:01.753Z,1241.43
2022-09-21T06:50:29.776Z,1248.45
2022-09-21T06:53:00.151Z,1244.65
2022-09-21T06:55:28.712Z,1249.53
2022-09-21T06:58:05.203Z,1241.97
2022-09-21T07:00:35.639Z,1241.78
2022-09-21T07:03:04.798Z,1245.97
2022-09-21T07:05:33.993Z,1252.32
2022-09-21T07:08:01.320Z,1251.65
2022-09-21T07:10:28.691Z,1248.90
2022-09-21T07:12:56.349Z,1247.20
2022-09-21T07:15:28.989Z,1251.20
2022-09-21T07:18:05.606Z,1249.85
2022-09-21T07:20:34.050Z,1250.40
2022-09-21T07:23:01.686Z,1250.97
2022-09-21T07:25:29.028Z,1252.57
2022-09-21T07:27:56.299Z,1257.73
2022-09-21T07:30:24.522Z,1253.32
2022-09-21T07:32:51.712Z,1260.75
2022-09-21T07:35:21.104Z,1254.40
2022-09-21T07:37:48.533Z,1249.03
2022-09-21T07:40:15.760Z,1257.07
2022-09-21T07:42:44.759Z,1249.38
2022-09-21T07:45:13.096Z,1249.45
2022-09-21T07:47:41.295Z,1254.03
2022-09-21T07:50:08.779Z,1250.37
2022-09-21T07:52:36.138Z,1258.37
2022-09-21T07:55:03.305Z,1251.55
2022-09-21T07:57:50.058Z,1256.38
2022-09-21T08:00:17.298Z,1250.95
2022-09-21T08:02:47.704Z,1251.05
2022-09-21T08:05:15.238Z,1254.53
2022-09-21T08:07:42.474Z,1258.53
2022-09-21T08:10:09.991Z,1273.50
2022-09-21T08:12:37.448Z,1256.13
2022-09-21T08:15:04.975Z,1256.00
2022-09-21T08:17:34.437Z,1255.97
2022-09-21T08:20:01.817Z,1262.60
2022-09-21T08:22:30.182Z,1255.50
2022-09-21T08:24:57.546Z,1254.85
2022-09-21T08:27:27.358Z,1256.37
2022-09-21T08:29:54.612Z,1253.10
2022-09-21T08:32:49.493Z,1251.80
2022-09-21T08:35:11.315Z,1251.90
2022-09-21T08:37:38.415Z,1254.72
2022-09-21T08:40:07.020Z,1254.82
2022-09-21T08:42:35.289Z,1261.45
2022-09-21T08:45:07.470Z,1258.55
2022-09-21T08:47:41.344Z,1259.72
2022-09-21T08:50:20.635Z,1254.00
2022-09-21T08:52:50.298Z,1252.40
2022-09-21T08:55:20.649Z,1249.47
2022-09-21T08:57:47.924Z,1251.57
2022-09-21T09:00:18.172Z,1251.85
2022-09-21T09:03:01.115Z,1252.63
2022-09-21T09:05:39.441Z,1254.07
2022-09-21T09:08:21.943Z,1257.65
2022-09-21T09:11:45.203Z,1255.82
2022-09-21T09:14:12.477Z,1259.47
2022-09-21T09:16:45.721Z,1254.05
2022-09-21T09:19:19.040Z,1254.88
2022-09-21T09:21:48.379Z,1257.97
2022-09-21T09:24:25.422Z,1253.13
2022-09-21T09:26:52.732Z,1257.38
2022-09-21T09:29:24.064Z,1262.03
2022-09-21T09:31:54.784Z,1264.10
2022-09-21T09:34:27.244Z,1258.95
2022-09-21T09:37:06.517Z,1254.82
2022-09-21T09:39:34.836Z,1258.38
2022-09-21T09:42:03.056Z,1258.93
2022-09-21T09:44:36.452Z,1256.28
2022-09-21T09:47:08.125Z,1261.13
2022-09-21T09:49:41.495Z,1255.60
2022-09-21T09:52:12.737Z,1263.50
2022-09-21T09:54:41.039Z,1256.13
2022-09-21T09:57:10.984Z,1257.28
2022-09-21T09:59:51.801Z,1228.10
2022-09-21T10:02:25.854Z,1260.82
2022-09-21T10:04:56.107Z,1260.43
2022-09-21T10:07:35.201Z,1265.40
2022-09-21T10:10:03.236Z,1265.88
2022-09-21T10:12:30.903Z,1260.32
2022-09-21T10:15:01.251Z,1264.97
2022-09-21T10:17:28.667Z,1258.80
2022-09-21T10:20:06.350Z,1262.60
2022-09-21T10:22:33.132Z,1260.85
2022-09-21T10:25:01.712Z,1265.78
2022-09-21T10:27:35.528Z,1260.97
2022-09-21T10:30:03.641Z,1263.07
2022-09-21T10:32:31.439Z,1262.80
2022-09-21T10:35:07.662Z,1262.03
2022-09-21T10:37:43.248Z,1262.47
2022-09-21T10:40:20.470Z,1262.63
2022-09-21T10:43:00.145Z,1261.22
2022-09-21T10:45:29.863Z,1267.68
2022-09-21T10:48:06.221Z,1265.00
2022-09-21T10:50:40.529Z,1264.97
2022-09-21T10:53:11.488Z,1263.15
2022-09-21T10:55:58.380Z,1263.15
2022-09-21T10:58:34.421Z,1264.82
2022-09-21T11:01:16.988Z,1267.05
2022-09-21T11:04:05.525Z,1265.18
2022-09-21T11:06:54.235Z,1266.85
2022-09-21T11:09:37.083Z,1261.97
2022-09-21T11:12:39.662Z,1264.18
2022-09-21T11:15:30.198Z,1265.88
2022-09-21T11:18:24.510Z,1265.32
2022-09-21T11:20:59.286Z,1268.78
2022-09-21T11:23:26.555Z,1265.72
2022-09-21T11:26:25.365Z,1269.57
2022-09-21T11:29:15.118Z,1264.05
2022-09-21T11:32:06.115Z,1264.72
2022-09-21T11:34:49.447Z,1270.38
2022-09-21T11:37:54.830Z,1265.63
2022-09-21T11:40:30.223Z,1261.45
2022-09-21T11:43:10.061Z,1267.72
2022-09-21T11:45:51.981Z,1260.70
2022-09-21T11:48:44.861Z,1268.32
2022-09-21T11:51:38.677Z,1262.65
2022-09-21T11:54:44.189Z,1265.35
2022-09-21T11:57:20.532Z,1265.63
2022-09-21T12:00:15.838Z,1267.22
2022-09-21T12:03:11.775Z,1268.68
2022-09-21T12:05:55.224Z,1263.47
2022-09-21T12:09:02.086Z,1267.47
2022-09-21T12:11:48.825Z,1268.50
2022-09-21T12:14:34.505Z,1270.07
2022-09-21T12:17:10.963Z,1273.83
2022-09-21T12:19:56.819Z,1268.22
2022-09-21T12:22:34.506Z,1269.43
2022-09-21T12:25:23.553Z,1269.55
2022-09-21T12:27:58.562Z,1267.03
2022-09-21T12:30:29.292Z,1269.78
2022-09-21T12:33:14.002Z,1274.63
2022-09-21T12:35:46.674Z,1269.17
2022-09-21T12:38:30.393Z,1267.25
2022-09-21T12:41:17.069Z,1271.35
2022-09-21T12:43:44.601Z,1271.22
2022-09-21T12:46:22.726Z,1269.65
2022-09-21T12:48:50.998Z,1269.00
2022-09-21T12:51:27.437Z,1268.75
2022-09-21T12:53:56.870Z,1271.68
2022-09-21T12:56:44.535Z,1270.00
2022-09-21T12:59:48.655Z,1270.60
2022-09-21T13:02:41.669Z,1268.03
2022-09-21T13:05:09.342Z,1270.93
2022-09-21T13:07:51.543Z,1268.70
2022-09-21T13:10:22.323Z,1268.70
2022-09-21T13:12:53.144Z,1267.47
2022-09-21T13:15:27.333Z,1268.93
2022-09-21T13:18:05.524Z,1268.63
2022-09-21T13:20:41.116Z,1269.45
2022-09-21T13:23:21.104Z,1264.65
2022-09-21T13:26:00.634Z,1267.28
2022-09-21T13:28:54.550Z,1269.28
2022-09-21T13:32:03.601Z,1269.93
2022-09-21T13:34:32.838Z,1268.55
2022-09-21T13:37:16.692Z,1268.57
2022-09-21T13:39:44.066Z,1267.18
2022-09-21T13:42:38.338Z,1270.47
2022-09-21T13:45:13.605Z,1276.77
2022-09-21T13:47:42.203Z,1275.38
2022-09-21T13:50:18.220Z,1276.65
2022-09-21T13:52:52.015Z,1276.47
2022-09-21T13:55:34.635Z,1274.38
2022-09-21T13:58:07.127Z,1279.93
2022-09-21T14:00:56.136Z,1276.90
2022-09-21T14:03:38.339Z,1272.70
2022-09-21T14:06:21.126Z,1269.18
2022-09-21T14:08:49.608Z,1271.25
2022-09-21T14:11:33.536Z,1277.38
2022-09-21T14:14:12.739Z,1275.30
2022-09-21T14:16:39.920Z,1271.95
2022-09-21T14:19:19.160Z,1272.10
2022-09-21T14:22:05.681Z,1278.75
2022-09-21T14:24:43.987Z,1277.70
2022-09-21T14:27:36.418Z,1276.38
2022-09-21T14:30:08.309Z,1270.68
2022-09-21T14:33:02.151Z,1277.72
2022-09-21T14:35:39.347Z,1272.40
2022-09-21T14:38:30.415Z,1276.03
2022-09-21T14:41:07.219Z,1266.82
2022-09-21T14:43:36.076Z,1269.95
2022-09-21T14:46:40.547Z,1268.25
2022-09-21T14:49:11.066Z,1277.90
2022-09-21T14:52:03.931Z,1272.10
2022-09-21T14:54:34.629Z,1275.13
2022-09-21T14:57:30.408Z,1271.95
2022-09-21T15:00:15.194Z,1280.72
2022-09-21T15:02:44.762Z,1278.28
2022-09-21T15:05:24.277Z,1276.63
2022-09-21T15:08:22.197Z,1270.00
2022-09-21T15:11:01.382Z,1274.40
2022-09-21T15:13:36.485Z,1281.35
2022-09-21T15:16:17.668Z,1279.30
2022-09-21T15:18:46.860Z,1281.07
2022-09-21T15:21:43.560Z,1277.13
2022-09-21T15:24:21.699Z,1279.30
2022-09-21T15:26:51.488Z,1279.28
2022-09-21T15:29:25.796Z,1284.72
2022-09-21T15:31:53.464Z,1277.32
2022-09-21T15:34:21.079Z,1282.63
2022-09-21T15:36:50.889Z,1286.80
2022-09-21T15:39:24.194Z,1281.60
2022-09-21T15:42:07.487Z,1283.23
2022-09-21T15:44:34.772Z,1284.30
2022-09-21T15:47:03.421Z,1279.20
2022-09-21T15:49:31.724Z,1282.45
2022-09-21T15:52:12.925Z,1281.60
2022-09-21T15:54:46.016Z,1297.05
2022-09-21T15:57:36.408Z,1278.03
2022-09-21T16:00:18.853Z,1278.53
2022-09-21T16:03:06.367Z,1281.40
2022-09-21T16:05:35.150Z,1274.07
2022-09-21T16:08:24.157Z,1275.18
2022-09-21T16:10:53.469Z,1277.68
2022-09-21T16:13:42.723Z,1273.87
2022-09-21T16:16:13.988Z,1271.43
2022-09-21T16:18:44.426Z,1275.13
2022-09-21T16:21:28.144Z,1278.93
2022-09-21T16:23:57.422Z,1277.35
2022-09-21T16:26:32.351Z,1275.68
2022-09-21T16:29:19.453Z,1280.32
2022-09-21T16:31:50.359Z,1275.07
2022-09-21T16:34:32.989Z,1274.82
2022-09-21T16:37:02.150Z,1279.55
2022-09-21T16:39:29.273Z,1273.15
2022-09-21T16:42:01.254Z,1277.68
2022-09-21T16:44:31.399Z,1273.63
2022-09-21T16:47:00.816Z,1274.05
2022-09-21T16:49:31.131Z,1277.43
2022-09-21T16:51:59.295Z,1278.33
2022-09-21T16:54:27.277Z,1276.95
2022-09-21T16:56:56.377Z,1277.72
2022-09-21T16:59:24.552Z,1275.65
2022-09-21T17:01:56.320Z,1272.97
2022-09-21T17:04:25.516Z,1265.80
2022-09-21T17:06:53.970Z,1277.05
2022-09-21T17:09:31.663Z,1274.88
2022-09-21T17:12:01.295Z,1276.07
2022-09-21T17:14:34.871Z,1270.32
2022-09-21T17:17:04.142Z,1277.03
2022-09-21T17:19:33.490Z,1272.88
2022-09-21T17:22:00.854Z,1274.05
2022-09-21T17:24:49.175Z,1272.30
2022-09-21T17:27:17.782Z,1272.97
2022-09-21T17:29:49.981Z,1271.65
2022-09-21T17:32:21.579Z,1269.90
2022-09-21T17:34:54.694Z,1276.10
2022-09-21T17:37:21.981Z,1274.43
2022-09-21T17:39:49.844Z,1273.13
2022-09-21T17:42:21.748Z,1276.20
2022-09-21T17:45:15.659Z,1272.38
2022-09-21T17:47:42.997Z,1275.90
2022-09-21T17:50:15.411Z,1276.53
2022-09-21T17:53:02.793Z,1275.35
2022-09-21T17:55:30.618Z,1268.53
2022-09-21T17:58:25.426Z,1271.78
2022-09-21T18:01:29.006Z,1269.63
2022-09-21T18:03:57.500Z,1270.07
2022-09-21T18:06:25.826Z,1274.18
2022-09-21T18:08:54.129Z,1274.28
2022-09-21T18:11:21.898Z,1270.45
2022-09-21T18:14:17.309Z,1269.20
2022-09-21T18:16:53.732Z,1272.22
2022-09-21T18:19:49.365Z,1273.45
2022-09-21T18:22:39.084Z,1271.53
2022-09-21T18:25:29.443Z,1267.90
2022-09-21T18:27:58.760Z,1271.13
2022-09-21T18:30:26.369Z,1265.88
2022-09-21T18:33:24.635Z,1278.18
2022-09-21T18:36:05.825Z,1267.97
2022-09-21T18:38:39.218Z,1269.03
2022-09-21T18:41:06.410Z,1268.93
2022-09-21T18:44:04.347Z,1266.72
2022-09-21T18:46:58.893Z,1273.03
2022-09-21T18:49:56.766Z,1266.97
2022-09-21T18:52:24.584Z,1263.00
2022-09-21T18:54:51.915Z,1271.43
2022-09-21T18:57:19.280Z,1269.72
2022-09-21T18:59:46.701Z,1266.30
2022-09-21T19:02:17.152Z,1267.90
2022-09-21T19:04:45.728Z,1263.67
2022-09-21T19:07:22.093Z,1266.07
2022-09-21T19:10:35.355Z,1265.80
2022-09-21T19:13:11.045Z,1268.68
2022-09-21T19:16:00.292Z,1263.15
2022-09-21T19:18:28.399Z,1270.97
2022-09-21T19:21:09.436Z,1264.27
2022-09-21T19:23:37.844Z,1270.43
2022-09-21T19:26:13.367Z,1266.38
2022-09-21T19:28:43.605Z,1269.25
2022-09-21T19:31:12.370Z,1272.78
2022-09-21T19:33:55.923Z,1274.78
2022-09-21T19:36:24.212Z,1265.13
2022-09-21T19:38:51.689Z,1266.57
2022-09-21T19:41:36.230Z,1273.55
2022-09-21T19:44:07.246Z,1272.45
2022-09-21T19:46:37.839Z,1268.90
2022-09-21T19:49:14.340Z,1270.40
2022-09-21T19:51:49.309Z,1272.65
2022-09-21T19:54:37.669Z,1270.00
2022-09-21T19:57:39.548Z,1269.88
2022-09-21T20:00:10.055Z,1268.25
2022-09-21T20:02:57.497Z,1265.95
2022-09-21T20:05:33.561Z,1264.38
2022-09-21T20:08:04.334Z,1266.35
2022-09-21T20:10:31.581Z,1268.93
2022-09-21T20:13:31.331Z,1261.43
2022-09-21T20:16:19.322Z,1268.53
2022-09-21T20:18:58.930Z,1268.68
2022-09-21T20:21:37.199Z,1266.22
2022-09-21T20:24:14.204Z,1268.17
2022-09-21T20:26:42.224Z,1268.93
2022-09-21T20:29:10.575Z,1267.23
2022-09-21T20:31:38.235Z,1271.55
2022-09-21T20:34:05.415Z,1262.23
2022-09-21T20:36:33.616Z,1270.10
2022-09-21T20:39:00.934Z,1267.18
2022-09-21T20:41:29.146Z,1267.13
2022-09-21T20:43:56.544Z,1264.27
2022-09-21T20:46:24.773Z,1268.03
2022-09-21T20:49:03.238Z,1268.22
2022-09-21T20:51:30.913Z,1266.03
2022-09-21T20:53:59.246Z,1266.00
2022-09-21T20:56:26.520Z,1269.47
2022-09-21T20:58:53.755Z,1272.05
2022-09-21T21:01:20.961Z,1270.53
2022-09-21T21:03:48.196Z,1268.20
2022-09-21T21:06:18.664Z,1261.97
2022-09-21T21:08:46.120Z,1272.90
2022-09-21T21:11:14.506Z,1269.27
2022-09-21T21:13:42.466Z,1266.82
2022-09-21T21:16:12.400Z,1269.38
2022-09-21T21:18:43.254Z,1270.57
2022-09-21T21:21:11.462Z,1264.65
2022-09-21T21:23:57.428Z,1272.80
2022-09-21T21:26:43.874Z,1269.88
2022-09-21T21:29:12.274Z,1263.30
2022-09-21T21:31:40.913Z,1274.13
2022-09-21T21:34:07.838Z,1271.90
2022-09-21T21:36:34.965Z,1270.23
2022-09-21T21:39:01.798Z,1269.88
2022-09-21T21:41:31.362Z,1263.67
2022-09-21T21:43:59.342Z,1268.77
2022-09-21T21:46:26.512Z,1266.20
2022-09-21T21:48:53.895Z,1264.38
2022-09-21T21:51:21.167Z,1265.85
2022-09-21T21:53:48.022Z,1262.13
2022-09-21T21:56:17.252Z,1265.43
2022-09-21T21:58:45.574Z,1270.63
2022-09-21T22:01:20.265Z,1263.93
2022-09-21T22:03:54.535Z,1267.90
2022-09-21T22:06:22.174Z,1267.80
2022-09-21T22:08:51.730Z,1265.20
2022-09-21T22:11:21.189Z,1271.47
2022-09-21T22:13:50.312Z,1268.82
2022-09-21T22:16:19.350Z,1267.93
2022-09-21T22:18:46.980Z,1272.78
2022-09-21T22:21:17.415Z,1263.85
2022-09-21T22:23:45.580Z,1264.18
2022-09-21T22:26:15.580Z,1267.20
2022-09-21T22:28:47.970Z,1266.60
2022-09-21T22:31:18.790Z,1263.73
2022-09-21T22:33:49.351Z,1258.65
2022-09-21T22:36:18.762Z,1261.13
2022-09-21T22:38:47.198Z,1266.50
2022-09-21T22:41:19.962Z,1264.65
2022-09-21T22:43:48.598Z,1264.30
2022-09-21T22:46:16.841Z,1264.43
2022-09-21T22:48:44.738Z,1265.07
2022-09-21T22:51:14.381Z,1268.60
2022-09-21T22:53:42.825Z,1266.93
2022-09-21T22:56:12.955Z,1264.70
2022-09-21T22:58:42.394Z,1265.30
2022-09-21T23:01:19.531Z,1263.43
2022-09-21T23:03:50.826Z,1267.43
2022-09-21T23:06:20.465Z,1267.88
2022-09-21T23:08:50.314Z,1263.40
2022-09-21T23:11:20.378Z,1264.03
2022-09-21T23:13:47.630Z,1269.68
2022-09-21T23:16:16.793Z,1263.43
2022-09-21T23:18:44.722Z,1259.10
2022-09-21T23:21:19.902Z,1267.05
2022-09-21T23:23:48.497Z,1269.40
2022-09-21T23:26:19.559Z,1266.18
2022-09-21T23:28:52.745Z,1264.00
2022-09-21T23:31:21.400Z,1263.33
2022-09-21T23:33:51.880Z,1266.55
2022-09-21T23:36:24.342Z,1265.82
2022-09-21T23:38:52.934Z,1264.18
2022-09-21T23:41:27.574Z,1265.85
2022-09-21T23:43:55.422Z,1266.13
2022-09-21T23:46:26.087Z,1267.43
2022-09-21T23:48:54.768Z,1267.93
2022-09-21T23:51:29.786Z,1267.20
2022-09-21T23:53:57.495Z,1269.32
2022-09-21T23:56:26.970Z,1266.93
2022-09-21T23:58:55.329Z,1268.78
